sensor_id;sensor_type;location;lat;lon;timestamp;P1;durP1;ratioP1;P2;durP2;ratioP2
13685;SDS011;6915;48.296;8.874;2022-10-16T00:00:32;1.10;;;0.90;;
13685;SDS011;6915;48.296;8.874;2022-10-16T00:03:00;1.20;;;0.90;;
13685;SDS011;6915;48.296;8.874;2022-10-16T00:05:27;1.20;;;0.93;;
13685;SDS011;6915;48.296;8.874;2022-10-16T00:07:54;2.63;;;1.00;;
13685;SDS011;6915;48.296;8.874;2022-10-16T00:10:21;2.43;;;1.30;;
13685;SDS011;6915;48.296;8.874;2022-10-16T00:12:49;2.13;;;1.00;;
13685;SDS011;6915;48.296;8.874;2022-10-16T00:15:17;1.93;;;1.10;;
13685;SDS011;6915;48.296;8.874;2022-10-16T00:17:44;1.47;;;1.00;;
13685;SDS011;6915;48.296;8.874;2022-10-16T00:20:11;3.03;;;1.27;;
13685;SDS011;6915;48.296;8.874;2022-10-16T00:22:38;1.40;;;1.10;;
13685;SDS011;6915;48.296;8.874;2022-10-16T00:25:05;1.70;;;1.60;;
13685;SDS011;6915;48.296;8.874;2022-10-16T00:27:32;5.53;;;2.80;;
13685;SDS011;6915;48.296;8.874;2022-10-16T00:29:59;7.03;;;4.23;;
13685;SDS011;6915;48.296;8.874;2022-10-16T00:32:28;7.80;;;4.67;;
13685;SDS011;6915;48.296;8.874;2022-10-16T00:34:55;7.73;;;5.20;;
13685;SDS011;6915;48.296;8.874;2022-10-16T00:37:22;5.07;;;4.30;;
13685;SDS011;6915;48.296;8.874;2022-10-16T00:39:49;4.83;;;3.53;;
13685;SDS011;6915;48.296;8.874;2022-10-16T00:42:16;4.00;;;3.20;;
13685;SDS011;6915;48.296;8.874;2022-10-16T00:44:48;5.13;;;3.13;;
13685;SDS011;6915;48.296;8.874;2022-10-16T00:47:19;7.83;;;3.37;;
13685;SDS011;6915;48.296;8.874;2022-10-16T00:49:53;4.33;;;3.13;;
13685;SDS011;6915;48.296;8.874;2022-10-16T00:52:24;4.03;;;3.03;;
13685;SDS011;6915;48.296;8.874;2022-10-16T00:54:51;3.00;;;2.70;;
13685;SDS011;6915;48.296;8.874;2022-10-16T00:57:20;2.20;;;2.00;;
13685;SDS011;6915;48.296;8.874;2022-10-16T00:59:47;1.97;;;1.60;;
13685;SDS011;6915;48.296;8.874;2022-10-16T01:02:14;2.07;;;1.80;;
13685;SDS011;6915;48.296;8.874;2022-10-16T01:04:42;3.27;;;1.70;;
13685;SDS011;6915;48.296;8.874;2022-10-16T01:07:14;1.77;;;1.60;;
13685;SDS011;6915;48.296;8.874;2022-10-16T01:09:51;2.73;;;1.60;;
13685;SDS011;6915;48.296;8.874;2022-10-16T01:12:31;1.90;;;1.23;;
13685;SDS011;6915;48.296;8.874;2022-10-16T01:15:07;1.50;;;1.40;;
13685;SDS011;6915;48.296;8.874;2022-10-16T01:17:43;1.30;;;1.20;;
13685;SDS011;6915;48.296;8.874;2022-10-16T01:20:16;1.20;;;1.10;;
13685;SDS011;6915;48.296;8.874;2022-10-16T01:22:56;2.47;;;1.13;;
13685;SDS011;6915;48.296;8.874;2022-10-16T01:25:37;1.60;;;1.50;;
13685;SDS011;6915;48.296;8.874;2022-10-16T01:28:17;2.37;;;1.60;;
13685;SDS011;6915;48.296;8.874;2022-10-16T01:30:47;2.63;;;1.30;;
13685;SDS011;6915;48.296;8.874;2022-10-16T01:33:18;3.03;;;1.40;;
13685;SDS011;6915;48.296;8.874;2022-10-16T01:35:47;2.77;;;1.33;;
13685;SDS011;6915;48.296;8.874;2022-10-16T01:38:21;2.40;;;1.20;;
13685;SDS011;6915;48.296;8.874;2022-10-16T01:40:54;3.40;;;1.30;;
13685;SDS011;6915;48.296;8.874;2022-10-16T01:43:28;1.37;;;1.27;;
13685;SDS011;6915;48.296;8.874;2022-10-16T01:46:02;2.27;;;1.30;;
13685;SDS011;6915;48.296;8.874;2022-10-16T01:48:29;2.63;;;1.90;;
13685;SDS011;6915;48.296;8.874;2022-10-16T01:50:59;3.40;;;3.10;;
13685;SDS011;6915;48.296;8.874;2022-10-16T01:53:31;4.50;;;2.70;;
13685;SDS011;6915;48.296;8.874;2022-10-16T01:55:59;2.70;;;2.40;;
13685;SDS011;6915;48.296;8.874;2022-10-16T01:58:30;1.60;;;1.50;;
13685;SDS011;6915;48.296;8.874;2022-10-16T02:01:03;1.83;;;1.70;;
13685;SDS011;6915;48.296;8.874;2022-10-16T02:03:34;2.30;;;1.20;;
13685;SDS011;6915;48.296;8.874;2022-10-16T02:06:03;1.43;;;1.27;;
13685;SDS011;6915;48.296;8.874;2022-10-16T02:08:30;1.60;;;1.10;;
13685;SDS011;6915;48.296;8.874;2022-10-16T02:10:58;2.20;;;1.10;;
13685;SDS011;6915;48.296;8.874;2022-10-16T02:13:28;2.60;;;1.30;;
13685;SDS011;6915;48.296;8.874;2022-10-16T02:15:59;1.40;;;1.30;;
13685;SDS011;6915;48.296;8.874;2022-10-16T02:18:26;2.10;;;1.00;;
13685;SDS011;6915;48.296;8.874;2022-10-16T02:20:57;2.93;;;1.27;;
13685;SDS011;6915;48.296;8.874;2022-10-16T02:23:27;1.30;;;1.10;;
13685;SDS011;6915;48.296;8.874;2022-10-16T02:26:01;1.40;;;1.30;;
13685;SDS011;6915;48.296;8.874;2022-10-16T02:28:35;4.43;;;1.33;;
13685;SDS011;6915;48.296;8.874;2022-10-16T02:31:08;2.87;;;1.23;;
13685;SDS011;6915;48.296;8.874;2022-10-16T02:33:38;1.67;;;1.30;;
13685;SDS011;6915;48.296;8.874;2022-10-16T02:36:08;4.93;;;1.30;;
13685;SDS011;6915;48.296;8.874;2022-10-16T02:38:35;1.83;;;1.30;;
13685;SDS011;6915;48.296;8.874;2022-10-16T02:41:04;1.50;;;0.97;;
13685;SDS011;6915;48.296;8.874;2022-10-16T02:43:32;3.57;;;1.70;;
13685;SDS011;6915;48.296;8.874;2022-10-16T02:46:01;3.77;;;1.37;;
13685;SDS011;6915;48.296;8.874;2022-10-16T02:48:27;5.00;;;1.90;;
13685;SDS011;6915;48.296;8.874;2022-10-16T02:50:54;4.43;;;1.83;;
13685;SDS011;6915;48.296;8.874;2022-10-16T02:53:22;3.50;;;1.60;;
13685;SDS011;6915;48.296;8.874;2022-10-16T02:55:49;2.40;;;2.13;;
13685;SDS011;6915;48.296;8.874;2022-10-16T02:58:16;2.70;;;1.73;;
13685;SDS011;6915;48.296;8.874;2022-10-16T03:00:43;1.53;;;1.40;;
13685;SDS011;6915;48.296;8.874;2022-10-16T03:03:11;1.30;;;1.20;;
13685;SDS011;6915;48.296;8.874;2022-10-16T03:05:38;1.97;;;1.40;;
13685;SDS011;6915;48.296;8.874;2022-10-16T03:08:05;1.60;;;1.10;;
13685;SDS011;6915;48.296;8.874;2022-10-16T03:10:32;1.20;;;1.10;;
13685;SDS011;6915;48.296;8.874;2022-10-16T03:12:59;2.67;;;1.10;;
13685;SDS011;6915;48.296;8.874;2022-10-16T03:15:26;1.53;;;0.97;;
13685;SDS011;6915;48.296;8.874;2022-10-16T03:17:53;1.27;;;0.80;;
13685;SDS011;6915;48.296;8.874;2022-10-16T03:20:21;1.13;;;1.07;;
13685;SDS011;6915;48.296;8.874;2022-10-16T03:22:48;0.90;;;0.90;;
13685;SDS011;6915;48.296;8.874;2022-10-16T03:25:15;1.27;;;0.80;;
13685;SDS011;6915;48.296;8.874;2022-10-16T03:27:42;2.50;;;1.00;;
13685;SDS011;6915;48.296;8.874;2022-10-16T03:30:09;2.37;;;1.10;;
13685;SDS011;6915;48.296;8.874;2022-10-16T03:32:37;1.17;;;0.80;;
13685;SDS011;6915;48.296;8.874;2022-10-16T03:35:04;4.50;;;1.10;;
13685;SDS011;6915;48.296;8.874;2022-10-16T03:37:33;1.17;;;0.90;;
13685;SDS011;6915;48.296;8.874;2022-10-16T03:40:00;1.00;;;0.90;;
13685;SDS011;6915;48.296;8.874;2022-10-16T03:42:27;1.87;;;0.80;;
13685;SDS011;6915;48.296;8.874;2022-10-16T03:44:54;1.33;;;1.00;;
13685;SDS011;6915;48.296;8.874;2022-10-16T03:47:21;2.03;;;0.80;;
13685;SDS011;6915;48.296;8.874;2022-10-16T03:49:48;1.67;;;1.00;;
13685;SDS011;6915;48.296;8.874;2022-10-16T03:52:16;3.30;;;0.80;;
13685;SDS011;6915;48.296;8.874;2022-10-16T03:54:44;2.93;;;1.03;;
13685;SDS011;6915;48.296;8.874;2022-10-16T03:57:11;1.17;;;1.00;;
13685;SDS011;6915;48.296;8.874;2022-10-16T03:59:38;2.10;;;0.90;;
13685;SDS011;6915;48.296;8.874;2022-10-16T04:02:05;2.63;;;1.20;;
13685;SDS011;6915;48.296;8.874;2022-10-16T04:04:32;1.27;;;1.10;;
13685;SDS011;6915;48.296;8.874;2022-10-16T04:07:00;1.63;;;0.90;;
13685;SDS011;6915;48.296;8.874;2022-10-16T04:09:27;2.63;;;1.17;;
13685;SDS011;6915;48.296;8.874;2022-10-16T04:11:55;0.93;;;0.93;;
13685;SDS011;6915;48.296;8.874;2022-10-16T04:14:22;1.50;;;0.87;;
13685;SDS011;6915;48.296;8.874;2022-10-16T04:16:49;1.00;;;1.00;;
13685;SDS011;6915;48.296;8.874;2022-10-16T04:19:16;2.50;;;1.20;;
13685;SDS011;6915;48.296;8.874;2022-10-16T04:21:43;1.57;;;0.90;;
13685;SDS011;6915;48.296;8.874;2022-10-16T04:24:10;2.40;;;0.90;;
13685;SDS011;6915;48.296;8.874;2022-10-16T04:26:37;1.53;;;1.10;;
13685;SDS011;6915;48.296;8.874;2022-10-16T04:29:05;3.20;;;0.90;;
13685;SDS011;6915;48.296;8.874;2022-10-16T04:31:32;1.50;;;0.93;;
13685;SDS011;6915;48.296;8.874;2022-10-16T04:33:59;1.70;;;0.80;;
13685;SDS011;6915;48.296;8.874;2022-10-16T04:36:26;1.97;;;1.30;;
13685;SDS011;6915;48.296;8.874;2022-10-16T04:38:53;2.30;;;1.63;;
13685;SDS011;6915;48.296;8.874;2022-10-16T04:41:20;1.17;;;1.10;;
13685;SDS011;6915;48.296;8.874;2022-10-16T04:43:47;3.63;;;1.40;;
13685;SDS011;6915;48.296;8.874;2022-10-16T04:46:15;2.30;;;1.50;;
13685;SDS011;6915;48.296;8.874;2022-10-16T04:48:42;1.13;;;1.03;;
13685;SDS011;6915;48.296;8.874;2022-10-16T04:51:09;2.20;;;1.03;;
13685;SDS011;6915;48.296;8.874;2022-10-16T04:53:36;1.20;;;1.10;;
13685;SDS011;6915;48.296;8.874;2022-10-16T04:56:03;1.83;;;1.23;;
13685;SDS011;6915;48.296;8.874;2022-10-16T04:58:30;2.20;;;1.10;;
13685;SDS011;6915;48.296;8.874;2022-10-16T05:00:58;1.23;;;1.17;;
13685;SDS011;6915;48.296;8.874;2022-10-16T05:03:26;1.10;;;1.00;;
13685;SDS011;6915;48.296;8.874;2022-10-16T05:05:53;1.60;;;1.10;;
13685;SDS011;6915;48.296;8.874;2022-10-16T05:08:20;2.77;;;1.17;;
13685;SDS011;6915;48.296;8.874;2022-10-16T05:10:47;1.20;;;1.10;;
13685;SDS011;6915;48.296;8.874;2022-10-16T05:13:14;4.40;;;1.30;;
13685;SDS011;6915;48.296;8.874;2022-10-16T05:15:40;1.50;;;1.40;;
13685;SDS011;6915;48.296;8.874;2022-10-16T05:18:08;2.20;;;1.20;;
13685;SDS011;6915;48.296;8.874;2022-10-16T05:20:36;4.63;;;1.10;;
13685;SDS011;6915;48.296;8.874;2022-10-16T05:23:03;2.27;;;1.10;;
13685;SDS011;6915;48.296;8.874;2022-10-16T05:25:30;4.03;;;1.30;;
13685;SDS011;6915;48.296;8.874;2022-10-16T05:27:57;2.50;;;1.13;;
13685;SDS011;6915;48.296;8.874;2022-10-16T05:30:24;1.43;;;1.10;;
13685;SDS011;6915;48.296;8.874;2022-10-16T05:32:51;3.17;;;1.20;;
13685;SDS011;6915;48.296;8.874;2022-10-16T05:35:18;2.40;;;1.40;;
13685;SDS011;6915;48.296;8.874;2022-10-16T05:37:47;5.00;;;4.50;;
13685;SDS011;6915;48.296;8.874;2022-10-16T05:40:14;4.93;;;3.93;;
13685;SDS011;6915;48.296;8.874;2022-10-16T05:42:42;4.07;;;3.17;;
13685;SDS011;6915;48.296;8.874;2022-10-16T05:45:09;3.37;;;2.70;;
13685;SDS011;6915;48.296;8.874;2022-10-16T05:47:37;2.87;;;2.67;;
13685;SDS011;6915;48.296;8.874;2022-10-16T05:50:07;3.33;;;2.50;;
13685;SDS011;6915;48.296;8.874;2022-10-16T05:52:35;2.40;;;2.10;;
13685;SDS011;6915;48.296;8.874;2022-10-16T05:55:04;2.30;;;2.03;;
13685;SDS011;6915;48.296;8.874;2022-10-16T05:57:31;4.93;;;2.10;;
13685;SDS011;6915;48.296;8.874;2022-10-16T05:59:58;1.93;;;1.70;;
13685;SDS011;6915;48.296;8.874;2022-10-16T06:02:25;1.87;;;1.73;;
13685;SDS011;6915;48.296;8.874;2022-10-16T06:04:53;4.00;;;3.00;;
13685;SDS011;6915;48.296;8.874;2022-10-16T06:07:22;1.93;;;1.83;;
13685;SDS011;6915;48.296;8.874;2022-10-16T06:09:49;2.90;;;1.70;;
13685;SDS011;6915;48.296;8.874;2022-10-16T06:12:18;1.90;;;1.80;;
13685;SDS011;6915;48.296;8.874;2022-10-16T06:14:46;1.70;;;1.60;;
13685;SDS011;6915;48.296;8.874;2022-10-16T06:17:14;2.67;;;1.30;;
13685;SDS011;6915;48.296;8.874;2022-10-16T06:19:41;3.40;;;3.00;;
13685;SDS011;6915;48.296;8.874;2022-10-16T06:22:09;5.90;;;3.20;;
13685;SDS011;6915;48.296;8.874;2022-10-16T06:24:37;3.40;;;2.33;;
13685;SDS011;6915;48.296;8.874;2022-10-16T06:27:04;3.90;;;2.13;;
13685;SDS011;6915;48.296;8.874;2022-10-16T06:29:33;6.13;;;1.60;;
13685;SDS011;6915;48.296;8.874;2022-10-16T06:32:00;3.07;;;1.40;;
13685;SDS011;6915;48.296;8.874;2022-10-16T06:34:27;5.43;;;1.90;;
13685;SDS011;6915;48.296;8.874;2022-10-16T06:36:53;2.33;;;1.93;;
13685;SDS011;6915;48.296;8.874;2022-10-16T06:39:20;2.20;;;2.00;;
13685;SDS011;6915;48.296;8.874;2022-10-16T06:41:47;2.20;;;1.97;;
13685;SDS011;6915;48.296;8.874;2022-10-16T06:44:14;2.33;;;2.10;;
13685;SDS011;6915;48.296;8.874;2022-10-16T06:46:43;3.53;;;2.43;;
13685;SDS011;6915;48.296;8.874;2022-10-16T06:49:10;3.10;;;1.90;;
13685;SDS011;6915;48.296;8.874;2022-10-16T06:51:37;3.30;;;2.43;;
13685;SDS011;6915;48.296;8.874;2022-10-16T06:54:06;3.37;;;2.53;;
13685;SDS011;6915;48.296;8.874;2022-10-16T06:56:33;3.50;;;2.70;;
13685;SDS011;6915;48.296;8.874;2022-10-16T06:59:00;5.80;;;3.70;;
13685;SDS011;6915;48.296;8.874;2022-10-16T07:01:28;7.33;;;4.20;;
13685;SDS011;6915;48.296;8.874;2022-10-16T07:03:56;6.00;;;4.00;;
13685;SDS011;6915;48.296;8.874;2022-10-16T07:06:24;4.90;;;4.40;;
13685;SDS011;6915;48.296;8.874;2022-10-16T07:08:52;7.20;;;4.20;;
13685;SDS011;6915;48.296;8.874;2022-10-16T07:11:20;8.73;;;4.40;;
13685;SDS011;6915;48.296;8.874;2022-10-16T07:13:49;4.97;;;3.60;;
13685;SDS011;6915;48.296;8.874;2022-10-16T07:16:18;4.73;;;3.20;;
13685;SDS011;6915;48.296;8.874;2022-10-16T07:18:46;6.80;;;2.63;;
13685;SDS011;6915;48.296;8.874;2022-10-16T07:21:16;6.07;;;2.77;;
13685;SDS011;6915;48.296;8.874;2022-10-16T07:23:45;3.60;;;2.37;;
13685;SDS011;6915;48.296;8.874;2022-10-16T07:26:16;4.17;;;2.33;;
13685;SDS011;6915;48.296;8.874;2022-10-16T07:28:43;6.03;;;2.40;;
13685;SDS011;6915;48.296;8.874;2022-10-16T07:31:10;3.20;;;2.00;;
13685;SDS011;6915;48.296;8.874;2022-10-16T07:33:38;2.73;;;2.23;;
13685;SDS011;6915;48.296;8.874;2022-10-16T07:36:06;4.07;;;3.37;;
13685;SDS011;6915;48.296;8.874;2022-10-16T07:38:35;6.10;;;5.50;;
13685;SDS011;6915;48.296;8.874;2022-10-16T07:41:03;3.20;;;2.50;;
13685;SDS011;6915;48.296;8.874;2022-10-16T07:43:31;3.47;;;1.37;;
13685;SDS011;6915;48.296;8.874;2022-10-16T07:45:59;5.27;;;1.37;;
13685;SDS011;6915;48.296;8.874;2022-10-16T07:48:27;4.43;;;1.20;;
13685;SDS011;6915;48.296;8.874;2022-10-16T07:50:56;20.43;;;12.57;;
13685;SDS011;6915;48.296;8.874;2022-10-16T07:53:24;15.87;;;9.80;;
13685;SDS011;6915;48.296;8.874;2022-10-16T07:55:54;7.17;;;5.30;;
13685;SDS011;6915;48.296;8.874;2022-10-16T07:58:23;5.63;;;4.27;;
13685;SDS011;6915;48.296;8.874;2022-10-16T08:00:50;6.57;;;4.30;;
13685;SDS011;6915;48.296;8.874;2022-10-16T08:03:17;6.80;;;4.17;;
13685;SDS011;6915;48.296;8.874;2022-10-16T08:05:44;4.57;;;3.67;;
13685;SDS011;6915;48.296;8.874;2022-10-16T08:08:12;9.30;;;4.30;;
13685;SDS011;6915;48.296;8.874;2022-10-16T08:10:40;7.13;;;6.37;;
13685;SDS011;6915;48.296;8.874;2022-10-16T08:13:08;6.27;;;5.50;;
13685;SDS011;6915;48.296;8.874;2022-10-16T08:15:36;9.07;;;5.53;;
13685;SDS011;6915;48.296;8.874;2022-10-16T08:18:03;5.13;;;4.70;;
13685;SDS011;6915;48.296;8.874;2022-10-16T08:20:31;5.10;;;4.53;;
13685;SDS011;6915;48.296;8.874;2022-10-16T08:22:59;4.93;;;3.60;;
13685;SDS011;6915;48.296;8.874;2022-10-16T08:25:26;5.57;;;3.93;;
13685;SDS011;6915;48.296;8.874;2022-10-16T08:27:53;2.53;;;2.00;;
13685;SDS011;6915;48.296;8.874;2022-10-16T08:30:22;3.30;;;1.97;;
13685;SDS011;6915;48.296;8.874;2022-10-16T08:32:49;4.40;;;1.60;;
13685;SDS011;6915;48.296;8.874;2022-10-16T08:35:16;3.13;;;1.80;;
13685;SDS011;6915;48.296;8.874;2022-10-16T08:37:43;5.43;;;2.23;;
13685;SDS011;6915;48.296;8.874;2022-10-16T08:40:13;2.97;;;1.77;;
13685;SDS011;6915;48.296;8.874;2022-10-16T08:42:47;3.93;;;2.30;;
13685;SDS011;6915;48.296;8.874;2022-10-16T08:45:34;4.10;;;2.70;;
13685;SDS011;6915;48.296;8.874;2022-10-16T08:48:14;10.83;;;3.67;;
13685;SDS011;6915;48.296;8.874;2022-10-16T08:50:45;8.00;;;3.50;;
13685;SDS011;6915;48.296;8.874;2022-10-16T08:53:14;12.50;;;3.77;;
13685;SDS011;6915;48.296;8.874;2022-10-16T08:55:49;6.67;;;3.33;;
13685;SDS011;6915;48.296;8.874;2022-10-16T08:58:18;8.30;;;3.10;;
13685;SDS011;6915;48.296;8.874;2022-10-16T09:00:49;6.80;;;2.80;;
13685;SDS011;6915;48.296;8.874;2022-10-16T09:03:30;3.80;;;2.20;;
13685;SDS011;6915;48.296;8.874;2022-10-16T09:06:10;1.55;;;0.95;;
13685;SDS011;6915;48.296;8.874;2022-10-16T09:08:54;2.53;;;1.02;;
13685;SDS011;6915;48.296;8.874;2022-10-16T09:11:31;0.93;;;0.90;;
13685;SDS011;6915;48.296;8.874;2022-10-16T09:14:12;1.40;;;0.75;;
13685;SDS011;6915;48.296;8.874;2022-10-16T09:16:57;2.05;;;0.65;;
13685;SDS011;6915;48.296;8.874;2022-10-16T09:19:30;0.65;;;0.65;;
13685;SDS011;6915;48.296;8.874;2022-10-16T09:22:08;0.68;;;0.68;;
13685;SDS011;6915;48.296;8.874;2022-10-16T09:24:38;0.90;;;0.90;;
13685;SDS011;6915;48.296;8.874;2022-10-16T09:27:06;0.70;;;0.50;;
13685;SDS011;6915;48.296;8.874;2022-10-16T09:29:36;0.93;;;0.60;;
13685;SDS011;6915;48.296;8.874;2022-10-16T09:32:10;0.85;;;0.70;;
13685;SDS011;6915;48.296;8.874;2022-10-16T09:34:47;0.95;;;0.70;;
13685;SDS011;6915;48.296;8.874;2022-10-16T09:37:21;1.58;;;0.80;;
13685;SDS011;6915;48.296;8.874;2022-10-16T09:40:03;1.05;;;0.85;;
13685;SDS011;6915;48.296;8.874;2022-10-16T09:42:46;2.38;;;0.77;;
13685;SDS011;6915;48.296;8.874;2022-10-16T09:45:19;1.95;;;0.63;;
13685;SDS011;6915;48.296;8.874;2022-10-16T09:47:50;1.75;;;0.70;;
13685;SDS011;6915;48.296;8.874;2022-10-16T09:50:21;1.38;;;0.80;;
13685;SDS011;6915;48.296;8.874;2022-10-16T09:52:51;2.80;;;0.60;;
13685;SDS011;6915;48.296;8.874;2022-10-16T09:55:30;2.05;;;0.75;;
13685;SDS011;6915;48.296;8.874;2022-10-16T09:57:57;1.95;;;0.70;;
13685;SDS011;6915;48.296;8.874;2022-10-16T10:00:24;2.17;;;0.70;;
13685;SDS011;6915;48.296;8.874;2022-10-16T10:02:52;3.45;;;0.95;;
13685;SDS011;6915;48.296;8.874;2022-10-16T10:05:21;1.15;;;0.60;;
13685;SDS011;6915;48.296;8.874;2022-10-16T10:07:53;2.00;;;0.60;;
13685;SDS011;6915;48.296;8.874;2022-10-16T10:10:23;1.58;;;1.00;;
13685;SDS011;6915;48.296;8.874;2022-10-16T10:12:51;3.13;;;0.60;;
13685;SDS011;6915;48.296;8.874;2022-10-16T10:15:18;1.85;;;0.90;;
13685;SDS011;6915;48.296;8.874;2022-10-16T10:17:48;1.88;;;0.80;;
13685;SDS011;6915;48.296;8.874;2022-10-16T10:20:23;1.25;;;0.75;;
13685;SDS011;6915;48.296;8.874;2022-10-16T10:22:53;2.13;;;0.80;;
13685;SDS011;6915;48.296;8.874;2022-10-16T10:25:38;2.60;;;0.70;;
13685;SDS011;6915;48.296;8.874;2022-10-16T10:28:17;2.28;;;0.73;;
13685;SDS011;6915;48.296;8.874;2022-10-16T10:30:56;1.70;;;1.00;;
13685;SDS011;6915;48.296;8.874;2022-10-16T10:33:31;2.72;;;1.23;;
13685;SDS011;6915;48.296;8.874;2022-10-16T10:36:11;0.68;;;0.68;;
13685;SDS011;6915;48.296;8.874;2022-10-16T10:38:54;2.88;;;0.75;;
13685;SDS011;6915;48.296;8.874;2022-10-16T10:41:36;1.23;;;0.70;;
13685;SDS011;6915;48.296;8.874;2022-10-16T10:44:25;0.60;;;0.60;;
13685;SDS011;6915;48.296;8.874;2022-10-16T10:47:05;1.33;;;0.70;;
13685;SDS011;6915;48.296;8.874;2022-10-16T10:49:41;2.38;;;0.82;;
13685;SDS011;6915;48.296;8.874;2022-10-16T10:52:27;0.93;;;0.80;;
13685;SDS011;6915;48.296;8.874;2022-10-16T10:55:08;1.80;;;1.17;;
13685;SDS011;6915;48.296;8.874;2022-10-16T10:57:41;1.58;;;0.73;;
13685;SDS011;6915;48.296;8.874;2022-10-16T11:00:21;2.92;;;0.90;;
13685;SDS011;6915;48.296;8.874;2022-10-16T11:02:55;0.70;;;0.70;;
13685;SDS011;6915;48.296;8.874;2022-10-16T11:05:33;1.20;;;0.90;;
13685;SDS011;6915;48.296;8.874;2022-10-16T11:08:10;2.28;;;0.88;;
13685;SDS011;6915;48.296;8.874;2022-10-16T11:10:45;1.33;;;0.90;;
13685;SDS011;6915;48.296;8.874;2022-10-16T11:13:19;2.90;;;1.10;;
13685;SDS011;6915;48.296;8.874;2022-10-16T11:15:56;1.77;;;0.75;;
13685;SDS011;6915;48.296;8.874;2022-10-16T11:18:27;0.93;;;0.90;;
13685;SDS011;6915;48.296;8.874;2022-10-16T11:21:01;3.50;;;0.90;;
13685;SDS011;6915;48.296;8.874;2022-10-16T11:23:33;1.92;;;0.88;;
13685;SDS011;6915;48.296;8.874;2022-10-16T11:26:11;1.85;;;0.90;;
13685;SDS011;6915;48.296;8.874;2022-10-16T11:28:43;2.92;;;0.90;;
13685;SDS011;6915;48.296;8.874;2022-10-16T11:31:16;1.42;;;1.00;;
13685;SDS011;6915;48.296;8.874;2022-10-16T11:33:49;1.90;;;0.93;;
13685;SDS011;6915;48.296;8.874;2022-10-16T11:36:22;0.88;;;0.80;;
13685;SDS011;6915;48.296;8.874;2022-10-16T11:38:55;3.15;;;1.35;;
13685;SDS011;6915;48.296;8.874;2022-10-16T11:41:29;2.47;;;1.23;;
13685;SDS011;6915;48.296;8.874;2022-10-16T11:44:10;2.78;;;1.42;;
13685;SDS011;6915;48.296;8.874;2022-10-16T11:46:45;2.95;;;0.98;;
13685;SDS011;6915;48.296;8.874;2022-10-16T11:49:18;1.40;;;0.90;;
13685;SDS011;6915;48.296;8.874;2022-10-16T11:51:48;3.83;;;1.27;;
13685;SDS011;6915;48.296;8.874;2022-10-16T11:54:28;2.60;;;1.25;;
13685;SDS011;6915;48.296;8.874;2022-10-16T11:57:05;3.65;;;1.00;;
13685;SDS011;6915;48.296;8.874;2022-10-16T11:59:39;3.28;;;1.20;;
13685;SDS011;6915;48.296;8.874;2022-10-16T12:02:17;2.95;;;1.15;;
13685;SDS011;6915;48.296;8.874;2022-10-16T12:04:56;3.03;;;0.93;;
13685;SDS011;6915;48.296;8.874;2022-10-16T12:07:34;3.08;;;1.30;;
13685;SDS011;6915;48.296;8.874;2022-10-16T12:10:17;4.50;;;1.20;;
13685;SDS011;6915;48.296;8.874;2022-10-16T12:12:46;2.35;;;1.17;;
13685;SDS011;6915;48.296;8.874;2022-10-16T12:15:20;1.90;;;1.40;;
13685;SDS011;6915;48.296;8.874;2022-10-16T12:17:50;2.97;;;1.23;;
13685;SDS011;6915;48.296;8.874;2022-10-16T12:20:20;3.13;;;1.48;;
13685;SDS011;6915;48.296;8.874;2022-10-16T12:22:53;2.80;;;1.10;;
13685;SDS011;6915;48.296;8.874;2022-10-16T12:25:24;3.30;;;1.25;;
13685;SDS011;6915;48.296;8.874;2022-10-16T12:28:00;2.30;;;1.08;;
13685;SDS011;6915;48.296;8.874;2022-10-16T12:30:29;1.52;;;1.38;;
13685;SDS011;6915;48.296;8.874;2022-10-16T12:32:58;1.65;;;1.20;;
13685;SDS011;6915;48.296;8.874;2022-10-16T12:35:28;1.25;;;0.88;;
13685;SDS011;6915;48.296;8.874;2022-10-16T12:38:08;3.05;;;1.20;;
13685;SDS011;6915;48.296;8.874;2022-10-16T12:40:43;1.15;;;1.05;;
13685;SDS011;6915;48.296;8.874;2022-10-16T12:43:13;4.40;;;1.23;;
13685;SDS011;6915;48.296;8.874;2022-10-16T12:45:58;2.38;;;1.20;;
13685;SDS011;6915;48.296;8.874;2022-10-16T12:48:27;1.00;;;1.00;;
13685;SDS011;6915;48.296;8.874;2022-10-16T12:50:55;1.85;;;0.90;;
13685;SDS011;6915;48.296;8.874;2022-10-16T12:53:24;1.85;;;1.25;;
13685;SDS011;6915;48.296;8.874;2022-10-16T12:55:57;1.50;;;1.00;;
13685;SDS011;6915;48.296;8.874;2022-10-16T12:58:40;1.83;;;0.90;;
13685;SDS011;6915;48.296;8.874;2022-10-16T13:01:34;0.88;;;0.85;;
13685;SDS011;6915;48.296;8.874;2022-10-16T13:04:20;3.38;;;0.90;;
13685;SDS011;6915;48.296;8.874;2022-10-16T13:06:59;2.10;;;1.13;;
13685;SDS011;6915;48.296;8.874;2022-10-16T13:09:47;1.88;;;0.98;;
13685;SDS011;6915;48.296;8.874;2022-10-16T13:12:29;1.77;;;1.02;;
13685;SDS011;6915;48.296;8.874;2022-10-16T13:15:24;0.82;;;0.82;;
13685;SDS011;6915;48.296;8.874;2022-10-16T13:18:02;0.98;;;0.98;;
13685;SDS011;6915;48.296;8.874;2022-10-16T13:20:42;2.00;;;1.00;;
13685;SDS011;6915;48.296;8.874;2022-10-16T13:23:21;0.98;;;0.90;;
13685;SDS011;6915;48.296;8.874;2022-10-16T13:25:57;1.10;;;1.00;;
13685;SDS011;6915;48.296;8.874;2022-10-16T13:28:34;1.63;;;1.00;;
13685;SDS011;6915;48.296;8.874;2022-10-16T13:31:03;1.10;;;1.00;;
13685;SDS011;6915;48.296;8.874;2022-10-16T13:33:32;2.88;;;1.05;;
13685;SDS011;6915;48.296;8.874;2022-10-16T13:36:01;1.48;;;1.30;;
13685;SDS011;6915;48.296;8.874;2022-10-16T13:38:29;1.27;;;1.17;;
13685;SDS011;6915;48.296;8.874;2022-10-16T13:40:59;1.08;;;1.08;;
13685;SDS011;6915;48.296;8.874;2022-10-16T13:43:28;1.10;;;1.10;;
13685;SDS011;6915;48.296;8.874;2022-10-16T13:46:00;1.73;;;1.10;;
13685;SDS011;6915;48.296;8.874;2022-10-16T13:48:28;2.17;;;1.08;;
13685;SDS011;6915;48.296;8.874;2022-10-16T13:51:00;1.77;;;0.90;;
13685;SDS011;6915;48.296;8.874;2022-10-16T13:53:32;1.73;;;1.17;;
13685;SDS011;6915;48.296;8.874;2022-10-16T13:56:01;1.38;;;1.10;;
13685;SDS011;6915;48.296;8.874;2022-10-16T13:58:30;2.70;;;1.13;;
13685;SDS011;6915;48.296;8.874;2022-10-16T14:00:57;2.47;;;1.25;;
13685;SDS011;6915;48.296;8.874;2022-10-16T14:03:27;1.40;;;1.00;;
13685;SDS011;6915;48.296;8.874;2022-10-16T14:05:56;1.52;;;1.23;;
13685;SDS011;6915;48.296;8.874;2022-10-16T14:08:27;5.25;;;1.20;;
13685;SDS011;6915;48.296;8.874;2022-10-16T14:10:56;2.05;;;1.10;;
13685;SDS011;6915;48.296;8.874;2022-10-16T14:13:27;1.92;;;0.90;;
13685;SDS011;6915;48.296;8.874;2022-10-16T14:16:05;2.65;;;1.20;;
13685;SDS011;6915;48.296;8.874;2022-10-16T14:18:36;4.07;;;1.38;;
13685;SDS011;6915;48.296;8.874;2022-10-16T14:21:06;5.10;;;1.40;;
13685;SDS011;6915;48.296;8.874;2022-10-16T14:23:38;1.85;;;1.10;;
13685;SDS011;6915;48.296;8.874;2022-10-16T14:26:13;2.92;;;1.42;;
13685;SDS011;6915;48.296;8.874;2022-10-16T14:28:42;1.40;;;1.30;;
13685;SDS011;6915;48.296;8.874;2022-10-16T14:31:27;1.77;;;1.50;;
13685;SDS011;6915;48.296;8.874;2022-10-16T14:33:56;1.90;;;1.45;;
13685;SDS011;6915;48.296;8.874;2022-10-16T14:36:24;1.95;;;1.30;;
13685;SDS011;6915;48.296;8.874;2022-10-16T14:39:02;1.55;;;1.42;;
13685;SDS011;6915;48.296;8.874;2022-10-16T14:41:31;2.22;;;1.35;;
13685;SDS011;6915;48.296;8.874;2022-10-16T14:44:09;2.72;;;2.10;;
13685;SDS011;6915;48.296;8.874;2022-10-16T14:46:39;2.83;;;1.83;;
13685;SDS011;6915;48.296;8.874;2022-10-16T14:49:13;2.90;;;1.80;;
13685;SDS011;6915;48.296;8.874;2022-10-16T14:51:44;4.47;;;1.38;;
13685;SDS011;6915;48.296;8.874;2022-10-16T14:54:10;4.47;;;1.40;;
13685;SDS011;6915;48.296;8.874;2022-10-16T14:56:42;1.58;;;1.48;;
13685;SDS011;6915;48.296;8.874;2022-10-16T14:59:13;2.55;;;1.63;;
13685;SDS011;6915;48.296;8.874;2022-10-16T15:01:45;3.05;;;2.00;;
13685;SDS011;6915;48.296;8.874;2022-10-16T15:04:13;3.38;;;1.48;;
13685;SDS011;6915;48.296;8.874;2022-10-16T15:06:40;3.75;;;1.85;;
13685;SDS011;6915;48.296;8.874;2022-10-16T15:09:07;3.25;;;1.70;;
13685;SDS011;6915;48.296;8.874;2022-10-16T15:11:34;2.20;;;1.63;;
13685;SDS011;6915;48.296;8.874;2022-10-16T15:14:01;1.65;;;1.25;;
13685;SDS011;6915;48.296;8.874;2022-10-16T15:16:29;1.90;;;1.30;;
13685;SDS011;6915;48.296;8.874;2022-10-16T17:38:07;5.87;;;1.47;;
13685;SDS011;6915;48.296;8.874;2022-10-16T20:33:18;1.77;;;1.40;;